This is the latest recevied weather packets stored in our database for station/object WX5RP. If no packets are shown the sender has not sent any weather packets the latest 10 day(s).
| Time | Temp. | Humidity | Pressure | Rain* | Wind** | Luminosity | Snow |
|---|---|---|---|---|---|---|---|
| 1787550017 | 16.67° C | 36% | 1020.2 hPa | 0 mm | - | 0 W/m² | - |
| 1787549417 | 17.78° C | 31% | 1020.2 hPa | 0 mm | - | 0 W/m² | - |
| 1787548817 | 18.33° C | 30% | 1020.3 hPa | 0 mm | - | 0 W/m² | - |
| 1787548216 | 16.67° C | 32% | 1021 hPa | 0 mm | - | 0 W/m² | - |
| 1787547617 | 14.44° C | 44% | 1020.3 hPa | 0 mm | - | 0 W/m² | - |
| 1787547017 | 16.11° C | 45% | 1019.8 hPa | 0 mm | - | 0 W/m² | - |
| 1787546416 | 17.22° C | 34% | 1019.8 hPa | 0 mm | - | 0 W/m² | - |
| 1787545816 | 17.22° C | 35% | 1019.5 hPa | 0 mm | - | 0 W/m² | - |
| 1787545216 | 18.33° C | 34% | 1019.5 hPa | 0 mm | - | 0 W/m² | - |
| 1787544617 | 18.89° C | 31% | 1020.2 hPa | 0 mm | - | 0 W/m² | - |
| 1787544016 | 18.33° C | 32% | 1019.9 hPa | 0 mm | - | 0 W/m² | - |
| 1787543416 | 18.89° C | 34% | 1019.4 hPa | 0 mm | - | 0 W/m² | - |
| 1787542816 | 19.44° C | 32% | 1018.9 hPa | 0 mm | - | 0 W/m² | - |
| 1787542216 | 19.44° C | 31% | 1018.6 hPa | 0 mm | - | 0 W/m² | - |
| 1787541616 | 21.11° C | 31% | 1018.6 hPa | 0 mm | - | 0 W/m² | - |
| 1787541016 | 22.22° C | 26% | 1019.4 hPa | 0 mm | - | 0 W/m² | - |
| 1787540417 | 21.67° C | 26% | 1018.8 hPa | 0 mm | - | 0 W/m² | - |
| 1787539816 | 22.78° C | 26% | 1018.8 hPa | 0 mm | - | 6 W/m² | - |
| 1787539216 | 22.78° C | 28% | 1017.9 hPa | 0 mm | - | 11 W/m² | - |
| 1787538615 | 23.89° C | 27% | 1018.2 hPa | 0 mm | - | 15 W/m² | - |
| 1787538016 | 25° C | 27% | 1017.8 hPa | 0 mm | - | 23 W/m² | - |
| 1787537416 | 25.56° C | 26% | 1018.7 hPa | 0 mm | - | 31 W/m² | - |
| 1787536816 | 26.67° C | 19% | 1018.8 hPa | 0 mm | - | 26 W/m² | - |
| 1787536216 | 27.22° C | 18% | 1018.7 hPa | 0 mm | - | 27 W/m² | - |
| 1787535615 | 27.22° C | 17% | 1018.8 hPa | 0 mm | - | 44 W/m² | - |
* Rain latest hour (hover to see other rain measurements)
** Current wind speed in m/s (hover to see current wind gust speed)